sensor_id;sensor_type;location;lat;lon;timestamp;pressure;altitude;pressure_sealevel;temperature
68127;BMP180;54931;52.098;21.006;2023-02-28T00:01:42;101666.20;;;-5.50
68127;BMP180;54931;52.098;21.006;2023-02-28T00:04:10;101666.80;;;-5.60
68127;BMP180;54931;52.098;21.006;2023-02-28T00:06:38;101668.40;;;-5.64
68127;BMP180;54931;52.098;21.006;2023-02-28T00:09:08;101671.40;;;-5.70
68127;BMP180;54931;52.098;21.006;2023-02-28T00:11:37;101672.40;;;-5.80
68127;BMP180;54931;52.098;21.006;2023-02-28T00:14:06;101673.40;;;-5.84
68127;BMP180;54931;52.098;21.006;2023-02-28T00:16:34;101674.20;;;-5.90
68127;BMP180;54931;52.098;21.006;2023-02-28T00:19:02;101678.60;;;-5.90
68127;BMP180;54931;52.098;21.006;2023-02-28T00:21:30;101676.80;;;-6.00
68127;BMP180;54931;52.098;21.006;2023-02-28T00:23:57;101679.40;;;-6.02
68127;BMP180;54931;52.098;21.006;2023-02-28T00:26:25;101677.60;;;-6.10
68127;BMP180;54931;52.098;21.006;2023-02-28T00:28:53;101678.20;;;-6.10
68127;BMP180;54931;52.098;21.006;2023-02-28T00:31:21;101677.80;;;-6.10
68127;BMP180;54931;52.098;21.006;2023-02-28T00:33:49;101677.20;;;-6.20
68127;BMP180;54931;52.098;21.006;2023-02-28T00:36:18;101680.20;;;-6.20
68127;BMP180;54931;52.098;21.006;2023-02-28T00:38:46;101680.60;;;-6.24
68127;BMP180;54931;52.098;21.006;2023-02-28T00:41:13;101674.60;;;-6.30
68127;BMP180;54931;52.098;21.006;2023-02-28T00:43:41;101676.60;;;-6.30
68127;BMP180;54931;52.098;21.006;2023-02-28T00:46:09;101677.60;;;-6.30
68127;BMP180;54931;52.098;21.006;2023-02-28T00:48:37;101682.00;;;-6.40
68127;BMP180;54931;52.098;21.006;2023-02-28T00:51:05;101672.00;;;-6.40
68127;BMP180;54931;52.098;21.006;2023-02-28T00:53:33;101674.40;;;-6.40
68127;BMP180;54931;52.098;21.006;2023-02-28T00:56:02;101676.20;;;-6.42
68127;BMP180;54931;52.098;21.006;2023-02-28T00:58:30;101673.20;;;-6.50
68127;BMP180;54931;52.098;21.006;2023-02-28T01:00:58;101672.20;;;-6.50
68127;BMP180;54931;52.098;21.006;2023-02-28T01:03:25;101675.80;;;-6.50
68127;BMP180;54931;52.098;21.006;2023-02-28T01:05:53;101674.60;;;-6.50
68127;BMP180;54931;52.098;21.006;2023-02-28T01:08:21;101671.80;;;-6.60
68127;BMP180;54931;52.098;21.006;2023-02-28T01:10:50;101672.60;;;-6.60
68127;BMP180;54931;52.098;21.006;2023-02-28T01:13:18;101680.00;;;-6.68
68127;BMP180;54931;52.098;21.006;2023-02-28T01:15:51;101674.60;;;-6.70
68127;BMP180;54931;52.098;21.006;2023-02-28T01:18:20;101676.20;;;-6.70
68127;BMP180;54931;52.098;21.006;2023-02-28T01:20:49;101672.80;;;-6.66
68127;BMP180;54931;52.098;21.006;2023-02-28T01:23:21;101674.80;;;-6.62
68127;BMP180;54931;52.098;21.006;2023-02-28T01:25:51;101670.40;;;-6.60
68127;BMP180;54931;52.098;21.006;2023-02-28T01:28:18;101669.80;;;-6.58
68127;BMP180;54931;52.098;21.006;2023-02-28T01:30:50;101671.40;;;-6.50
68127;BMP180;54931;52.098;21.006;2023-02-28T01:33:19;101671.40;;;-6.50
68127;BMP180;54931;52.098;21.006;2023-02-28T01:35:47;101667.40;;;-6.50
68127;BMP180;54931;52.098;21.006;2023-02-28T01:38:15;101669.00;;;-6.50
68127;BMP180;54931;52.098;21.006;2023-02-28T01:40:42;101672.20;;;-6.50
68127;BMP180;54931;52.098;21.006;2023-02-28T01:46:12;101680.20;;;-6.60
68127;BMP180;54931;52.098;21.006;2023-02-28T01:48:54;101674.40;;;-6.60
68127;BMP180;54931;52.098;21.006;2023-02-28T01:51:34;101677.20;;;-6.60
68127;BMP180;54931;52.098;21.006;2023-02-28T01:54:09;101680.20;;;-6.60
68127;BMP180;54931;52.098;21.006;2023-02-28T01:56:53;101684.40;;;-6.68
68127;BMP180;54931;52.098;21.006;2023-02-28T02:00:02;101682.80;;;-6.70
68127;BMP180;54931;52.098;21.006;2023-02-28T02:02:33;101681.80;;;-6.70
68127;BMP180;54931;52.098;21.006;2023-02-28T02:05:14;101678.40;;;-6.70
68127;BMP180;54931;52.098;21.006;2023-02-28T02:07:45;101677.40;;;-6.70
68127;BMP180;54931;52.098;21.006;2023-02-28T02:10:31;101676.80;;;-6.70
68127;BMP180;54931;52.098;21.006;2023-02-28T02:23:28;101669.40;;;-6.80
68127;BMP180;54931;52.098;21.006;2023-02-28T02:34:48;101674.20;;;-7.10
68127;BMP180;54931;52.098;21.006;2023-02-28T02:43:03;101682.40;;;-7.20
68127;BMP180;54931;52.098;21.006;2023-02-28T02:48:19;101676.40;;;-7.30
68127;BMP180;54931;52.098;21.006;2023-02-28T02:50:59;101679.60;;;-7.30
68127;BMP180;54931;52.098;21.006;2023-02-28T02:53:35;101678.80;;;-7.30
68127;BMP180;54931;52.098;21.006;2023-02-28T02:56:07;101677.80;;;-7.30
68127;BMP180;54931;52.098;21.006;2023-02-28T02:58:41;101682.00;;;-7.30
68127;BMP180;54931;52.098;21.006;2023-02-28T03:01:17;101682.80;;;-7.20
68127;BMP180;54931;52.098;21.006;2023-02-28T03:04:03;101689.40;;;-7.20
68127;BMP180;54931;52.098;21.006;2023-02-28T03:06:32;101689.40;;;-7.14
68127;BMP180;54931;52.098;21.006;2023-02-28T03:09:01;101685.40;;;-7.10
68127;BMP180;54931;52.098;21.006;2023-02-28T03:11:30;101684.40;;;-7.10
68127;BMP180;54931;52.098;21.006;2023-02-28T03:31:00;101687.40;;;-7.08
68127;BMP180;54931;52.098;21.006;2023-02-28T03:34:17;101693.20;;;-7.04
68127;BMP180;54931;52.098;21.006;2023-02-28T03:37:00;101689.60;;;-7.08
68127;BMP180;54931;52.098;21.006;2023-02-28T03:39:45;101694.20;;;-7.10
68127;BMP180;54931;52.098;21.006;2023-02-28T03:42:21;101698.80;;;-7.10
68127;BMP180;54931;52.098;21.006;2023-02-28T03:45:22;101694.40;;;-7.08
68127;BMP180;54931;52.098;21.006;2023-02-28T03:47:55;101695.40;;;-7.10
68127;BMP180;54931;52.098;21.006;2023-02-28T03:50:40;101699.00;;;-7.10
68127;BMP180;54931;52.098;21.006;2023-02-28T03:53:16;101701.60;;;-7.08
68127;BMP180;54931;52.098;21.006;2023-02-28T03:55:54;101700.80;;;-7.10
68127;BMP180;54931;52.098;21.006;2023-02-28T04:01:33;101701.00;;;-7.10
68127;BMP180;54931;52.098;21.006;2023-02-28T04:04:05;101702.60;;;-7.10
68127;BMP180;54931;52.098;21.006;2023-02-28T04:06:34;101705.80;;;-7.10
68127;BMP180;54931;52.098;21.006;2023-02-28T04:09:05;101707.60;;;-7.10
68127;BMP180;54931;52.098;21.006;2023-02-28T04:11:45;101706.80;;;-7.10
68127;BMP180;54931;52.098;21.006;2023-02-28T04:14:18;101697.80;;;-7.10
68127;BMP180;54931;52.098;21.006;2023-02-28T04:16:47;101695.00;;;-7.10
68127;BMP180;54931;52.098;21.006;2023-02-28T04:19:16;101699.20;;;-7.10
68127;BMP180;54931;52.098;21.006;2023-02-28T04:21:48;101701.00;;;-7.10
68127;BMP180;54931;52.098;21.006;2023-02-28T04:24:22;101702.00;;;-7.20
68127;BMP180;54931;52.098;21.006;2023-02-28T04:26:54;101700.40;;;-7.20
68127;BMP180;54931;52.098;21.006;2023-02-28T04:29:26;101700.80;;;-7.20
68127;BMP180;54931;52.098;21.006;2023-02-28T04:31:56;101702.60;;;-7.20
68127;BMP180;54931;52.098;21.006;2023-02-28T04:34:29;101702.60;;;-7.20
68127;BMP180;54931;52.098;21.006;2023-02-28T04:36:58;101703.80;;;-7.26
68127;BMP180;54931;52.098;21.006;2023-02-28T04:39:29;101707.00;;;-7.30
68127;BMP180;54931;52.098;21.006;2023-02-28T04:41:57;101707.20;;;-7.30
68127;BMP180;54931;52.098;21.006;2023-02-28T04:44:25;101708.20;;;-7.30
68127;BMP180;54931;52.098;21.006;2023-02-28T04:46:53;101706.00;;;-7.36
68127;BMP180;54931;52.098;21.006;2023-02-28T04:49:21;101708.60;;;-7.40
68127;BMP180;54931;52.098;21.006;2023-02-28T04:51:49;101710.40;;;-7.40
68127;BMP180;54931;52.098;21.006;2023-02-28T04:54:18;101709.40;;;-7.40
68127;BMP180;54931;52.098;21.006;2023-02-28T04:56:46;101705.60;;;-7.50
68127;BMP180;54931;52.098;21.006;2023-02-28T04:59:17;101709.00;;;-7.50
68127;BMP180;54931;52.098;21.006;2023-02-28T05:01:49;101709.60;;;-7.50
68127;BMP180;54931;52.098;21.006;2023-02-28T05:04:18;101718.00;;;-7.50
68127;BMP180;54931;52.098;21.006;2023-02-28T05:06:45;101715.60;;;-7.58
68127;BMP180;54931;52.098;21.006;2023-02-28T05:09:14;101720.00;;;-7.60
68127;BMP180;54931;52.098;21.006;2023-02-28T05:11:43;101725.60;;;-7.60
68127;BMP180;54931;52.098;21.006;2023-02-28T05:14:14;101716.00;;;-7.60
68127;BMP180;54931;52.098;21.006;2023-02-28T05:16:42;101723.60;;;-7.60
68127;BMP180;54931;52.098;21.006;2023-02-28T05:19:10;101722.20;;;-7.64
68127;BMP180;54931;52.098;21.006;2023-02-28T05:21:47;101726.40;;;-7.70
68127;BMP180;54931;52.098;21.006;2023-02-28T05:24:17;101721.20;;;-7.70
68127;BMP180;54931;52.098;21.006;2023-02-28T05:26:53;101733.00;;;-7.70
68127;BMP180;54931;52.098;21.006;2023-02-28T05:29:22;101730.40;;;-7.70
68127;BMP180;54931;52.098;21.006;2023-02-28T05:31:51;101732.40;;;-7.70
68127;BMP180;54931;52.098;21.006;2023-02-28T05:34:20;101736.40;;;-7.70
68127;BMP180;54931;52.098;21.006;2023-02-28T05:36:48;101736.80;;;-7.70
68127;BMP180;54931;52.098;21.006;2023-02-28T05:39:16;101733.20;;;-7.70
68127;BMP180;54931;52.098;21.006;2023-02-28T05:41:45;101741.40;;;-7.68
68127;BMP180;54931;52.098;21.006;2023-02-28T05:44:13;101743.20;;;-7.60
68127;BMP180;54931;52.098;21.006;2023-02-28T05:46:41;101743.60;;;-7.60
68127;BMP180;54931;52.098;21.006;2023-02-28T05:49:09;101750.60;;;-7.60
68127;BMP180;54931;52.098;21.006;2023-02-28T05:51:37;101755.20;;;-7.60
68127;BMP180;54931;52.098;21.006;2023-02-28T05:54:07;101760.80;;;-7.56
68127;BMP180;54931;52.098;21.006;2023-02-28T05:56:36;101759.80;;;-7.50
68127;BMP180;54931;52.098;21.006;2023-02-28T05:59:07;101758.60;;;-7.50
68127;BMP180;54931;52.098;21.006;2023-02-28T06:01:39;101763.00;;;-7.48
68127;BMP180;54931;52.098;21.006;2023-02-28T06:04:10;101760.80;;;-7.40
68127;BMP180;54931;52.098;21.006;2023-02-28T06:06:38;101760.80;;;-7.38
68127;BMP180;54931;52.098;21.006;2023-02-28T06:09:07;101762.00;;;-7.30
68127;BMP180;54931;52.098;21.006;2023-02-28T06:11:36;101768.00;;;-7.20
68127;BMP180;54931;52.098;21.006;2023-02-28T06:14:05;101771.80;;;-7.10
68127;BMP180;54931;52.098;21.006;2023-02-28T06:16:35;101770.00;;;-7.00
68127;BMP180;54931;52.098;21.006;2023-02-28T06:19:04;101767.80;;;-6.90
68127;BMP180;54931;52.098;21.006;2023-02-28T06:21:32;101769.40;;;-6.80
68127;BMP180;54931;52.098;21.006;2023-02-28T06:24:00;101770.80;;;-6.64
68127;BMP180;54931;52.098;21.006;2023-02-28T06:26:29;101769.40;;;-6.50
68127;BMP180;54931;52.098;21.006;2023-02-28T06:28:58;101769.80;;;-6.40
68127;BMP180;54931;52.098;21.006;2023-02-28T06:31:26;101768.60;;;-6.28
68127;BMP180;54931;52.098;21.006;2023-02-28T06:33:57;101779.40;;;-6.10
68127;BMP180;54931;52.098;21.006;2023-02-28T06:36:25;101772.80;;;-5.98
68127;BMP180;54931;52.098;21.006;2023-02-28T06:38:54;101773.80;;;-5.80
68127;BMP180;54931;52.098;21.006;2023-02-28T06:41:25;101773.80;;;-5.60
68127;BMP180;54931;52.098;21.006;2023-02-28T06:43:53;101774.40;;;-5.14
68127;BMP180;54931;52.098;21.006;2023-02-28T06:46:22;101774.80;;;-4.34
68127;BMP180;54931;52.098;21.006;2023-02-28T06:48:51;101770.40;;;-3.48
68127;BMP180;54931;52.098;21.006;2023-02-28T06:51:20;101777.20;;;-2.64
68127;BMP180;54931;52.098;21.006;2023-02-28T06:53:51;101778.80;;;-1.86
68127;BMP180;54931;52.098;21.006;2023-02-28T06:56:19;101778.20;;;-1.16
68127;BMP180;54931;52.098;21.006;2023-02-28T06:58:50;101776.60;;;-0.70
68127;BMP180;54931;52.098;21.006;2023-02-28T07:01:20;101777.00;;;-0.38
68127;BMP180;54931;52.098;21.006;2023-02-28T07:03:51;101777.00;;;-0.20
68127;BMP180;54931;52.098;21.006;2023-02-28T07:06:24;101772.00;;;-0.10
68127;BMP180;54931;52.098;21.006;2023-02-28T07:08:53;101776.40;;;0.10
68127;BMP180;54931;52.098;21.006;2023-02-28T07:11:24;101771.80;;;0.32
68127;BMP180;54931;52.098;21.006;2023-02-28T07:13:55;101768.60;;;0.68
68127;BMP180;54931;52.098;21.006;2023-02-28T07:16:25;101772.20;;;1.08
68127;BMP180;54931;52.098;21.006;2023-02-28T07:18:54;101770.80;;;1.44
68127;BMP180;54931;52.098;21.006;2023-02-28T07:21:23;101775.80;;;1.52
68127;BMP180;54931;52.098;21.006;2023-02-28T07:23:52;101778.40;;;1.70
68127;BMP180;54931;52.098;21.006;2023-02-28T07:26:20;101785.80;;;1.70
68127;BMP180;54931;52.098;21.006;2023-02-28T07:28:49;101782.40;;;1.70
68127;BMP180;54931;52.098;21.006;2023-02-28T07:31:18;101787.20;;;1.70
68127;BMP180;54931;52.098;21.006;2023-02-28T07:33:47;101786.20;;;1.98
68127;BMP180;54931;52.098;21.006;2023-02-28T07:36:17;101790.20;;;2.48
68127;BMP180;54931;52.098;21.006;2023-02-28T07:38:48;101789.80;;;2.88
68127;BMP180;54931;52.098;21.006;2023-02-28T07:41:20;101791.60;;;3.00
68127;BMP180;54931;52.098;21.006;2023-02-28T07:43:49;101798.00;;;3.42
68127;BMP180;54931;52.098;21.006;2023-02-28T07:46:17;101789.60;;;3.66
68127;BMP180;54931;52.098;21.006;2023-02-28T07:48:46;101790.00;;;3.46
68127;BMP180;54931;52.098;21.006;2023-02-28T07:51:14;101785.00;;;2.94
68127;BMP180;54931;52.098;21.006;2023-02-28T07:53:42;101783.20;;;2.64
68127;BMP180;54931;52.098;21.006;2023-02-28T07:56:10;101788.80;;;2.60
68127;BMP180;54931;52.098;21.006;2023-02-28T07:58:38;101795.20;;;2.88
68127;BMP180;54931;52.098;21.006;2023-02-28T08:01:09;101792.20;;;3.28
68127;BMP180;54931;52.098;21.006;2023-02-28T08:03:39;101795.00;;;3.58
68127;BMP180;54931;52.098;21.006;2023-02-28T08:06:17;101791.60;;;3.50
68127;BMP180;54931;52.098;21.006;2023-02-28T08:08:46;101790.00;;;3.50
68127;BMP180;54931;52.098;21.006;2023-02-28T08:11:16;101791.40;;;3.50
68127;BMP180;54931;52.098;21.006;2023-02-28T08:13:45;101787.40;;;3.60
68127;BMP180;54931;52.098;21.006;2023-02-28T08:16:14;101787.80;;;3.90
68127;BMP180;54931;52.098;21.006;2023-02-28T08:18:45;101792.60;;;4.20
68127;BMP180;54931;52.098;21.006;2023-02-28T08:21:13;101794.40;;;4.50
68127;BMP180;54931;52.098;21.006;2023-02-28T08:23:41;101797.20;;;4.68
68127;BMP180;54931;52.098;21.006;2023-02-28T08:26:09;101790.00;;;4.80
68127;BMP180;54931;52.098;21.006;2023-02-28T08:28:37;101794.00;;;4.90
68127;BMP180;54931;52.098;21.006;2023-02-28T08:31:10;101795.40;;;5.20
68127;BMP180;54931;52.098;21.006;2023-02-28T08:33:38;101791.20;;;5.30
68127;BMP180;54931;52.098;21.006;2023-02-28T08:36:08;101789.40;;;5.50
68127;BMP180;54931;52.098;21.006;2023-02-28T08:38:37;101794.00;;;5.40
68127;BMP180;54931;52.098;21.006;2023-02-28T08:41:10;101789.40;;;5.50
68127;BMP180;54931;52.098;21.006;2023-02-28T08:43:39;101790.20;;;5.44
68127;BMP180;54931;52.098;21.006;2023-02-28T08:46:07;101792.20;;;5.62
68127;BMP180;54931;52.098;21.006;2023-02-28T08:48:36;101789.80;;;6.00
68127;BMP180;54931;52.098;21.006;2023-02-28T08:51:08;101792.00;;;6.20
68127;BMP180;54931;52.098;21.006;2023-02-28T08:53:37;101793.00;;;6.40
68127;BMP180;54931;52.098;21.006;2023-02-28T08:56:12;101798.40;;;6.72
68127;BMP180;54931;52.098;21.006;2023-02-28T08:58:41;101798.00;;;7.12
68127;BMP180;54931;52.098;21.006;2023-02-28T09:01:12;101805.60;;;7.10
68127;BMP180;54931;52.098;21.006;2023-02-28T09:03:42;101801.00;;;7.20
68127;BMP180;54931;52.098;21.006;2023-02-28T09:06:10;101804.40;;;7.30
68127;BMP180;54931;52.098;21.006;2023-02-28T09:08:39;101800.80;;;7.30
68127;BMP180;54931;52.098;21.006;2023-02-28T09:11:10;101809.00;;;6.92
68127;BMP180;54931;52.098;21.006;2023-02-28T09:13:39;101805.20;;;6.70
68127;BMP180;54931;52.098;21.006;2023-02-28T09:16:12;101810.80;;;6.50
68127;BMP180;54931;52.098;21.006;2023-02-28T09:18:40;101807.60;;;6.50
68127;BMP180;54931;52.098;21.006;2023-02-28T09:21:11;101816.00;;;6.40
68127;BMP180;54931;52.098;21.006;2023-02-28T09:23:43;101814.40;;;6.40
68127;BMP180;54931;52.098;21.006;2023-02-28T09:26:19;101814.40;;;6.20
68127;BMP180;54931;52.098;21.006;2023-02-28T09:28:49;101817.00;;;6.40
68127;BMP180;54931;52.098;21.006;2023-02-28T09:31:21;101817.40;;;6.20
68127;BMP180;54931;52.098;21.006;2023-02-28T09:33:51;101815.80;;;6.10
68127;BMP180;54931;52.098;21.006;2023-02-28T09:36:20;101822.20;;;6.18
68127;BMP180;54931;52.098;21.006;2023-02-28T09:38:49;101826.40;;;6.56
68127;BMP180;54931;52.098;21.006;2023-02-28T09:41:19;101826.80;;;6.80
68127;BMP180;54931;52.098;21.006;2023-02-28T09:44:00;101826.60;;;6.64
68127;BMP180;54931;52.098;21.006;2023-02-28T09:46:39;101826.40;;;6.30
68127;BMP180;54931;52.098;21.006;2023-02-28T09:49:20;101830.00;;;6.40
68127;BMP180;54931;52.098;21.006;2023-02-28T09:51:59;101831.00;;;6.76
68127;BMP180;54931;52.098;21.006;2023-02-28T09:54:30;101828.00;;;6.98
68127;BMP180;54931;52.098;21.006;2023-02-28T09:57:06;101829.40;;;7.00
68127;BMP180;54931;52.098;21.006;2023-02-28T09:59:42;101833.80;;;7.08
68127;BMP180;54931;52.098;21.006;2023-02-28T10:02:54;101826.20;;;6.70
68127;BMP180;54931;52.098;21.006;2023-02-28T10:05:41;101828.20;;;6.42
68127;BMP180;54931;52.098;21.006;2023-02-28T10:11:27;101816.80;;;6.46
68127;BMP180;54931;52.098;21.006;2023-02-28T10:16:49;101821.00;;;6.10
68127;BMP180;54931;52.098;21.006;2023-02-28T10:22:04;101818.80;;;5.90
68127;BMP180;54931;52.098;21.006;2023-02-28T10:24:37;101818.80;;;5.70
68127;BMP180;54931;52.098;21.006;2023-02-28T10:27:15;101825.60;;;5.60
68127;BMP180;54931;52.098;21.006;2023-02-28T10:29:46;101826.60;;;5.64
68127;BMP180;54931;52.098;21.006;2023-02-28T10:32:20;101824.20;;;5.52
68127;BMP180;54931;52.098;21.006;2023-02-28T10:34:57;101821.00;;;5.60
68127;BMP180;54931;52.098;21.006;2023-02-28T10:37:28;101823.00;;;5.60
68127;BMP180;54931;52.098;21.006;2023-02-28T10:39:56;101821.00;;;5.56
68127;BMP180;54931;52.098;21.006;2023-02-28T10:42:28;101819.60;;;5.40
68127;BMP180;54931;52.098;21.006;2023-02-28T10:45:15;101819.80;;;5.20
68127;BMP180;54931;52.098;21.006;2023-02-28T10:48:01;101818.20;;;5.10
68127;BMP180;54931;52.098;21.006;2023-02-28T10:50:44;101821.00;;;5.20
68127;BMP180;54931;52.098;21.006;2023-02-28T10:58:49;101816.20;;;5.70
68127;BMP180;54931;52.098;21.006;2023-02-28T11:04:33;101815.40;;;5.98
68127;BMP180;54931;52.098;21.006;2023-02-28T11:07:19;101808.40;;;5.90
68127;BMP180;54931;52.098;21.006;2023-02-28T11:09:50;101802.60;;;5.60
68127;BMP180;54931;52.098;21.006;2023-02-28T11:12:26;101803.60;;;5.30
68127;BMP180;54931;52.098;21.006;2023-02-28T11:15:02;101803.00;;;5.20
68127;BMP180;54931;52.098;21.006;2023-02-28T11:17:33;101804.20;;;5.10
68127;BMP180;54931;52.098;21.006;2023-02-28T11:20:04;101798.20;;;5.00
68127;BMP180;54931;52.098;21.006;2023-02-28T11:22:39;101797.40;;;5.10
68127;BMP180;54931;52.098;21.006;2023-02-28T11:25:21;101792.40;;;5.34
68127;BMP180;54931;52.098;21.006;2023-02-28T11:28:02;101785.20;;;5.20
68127;BMP180;54931;52.098;21.006;2023-02-28T11:30:39;101786.40;;;5.10
68127;BMP180;54931;52.098;21.006;2023-02-28T11:33:37;101784.60;;;5.08
68127;BMP180;54931;52.098;21.006;2023-02-28T11:36:14;101778.80;;;5.06
68127;BMP180;54931;52.098;21.006;2023-02-28T11:38:44;101777.80;;;4.92
68127;BMP180;54931;52.098;21.006;2023-02-28T11:44:37;101760.00;;;5.40
68127;BMP180;54931;52.098;21.006;2023-02-28T12:03:35;101726.00;;;4.70
68127;BMP180;54931;52.098;21.006;2023-02-28T12:06:28;101720.80;;;4.50
68127;BMP180;54931;52.098;21.006;2023-02-28T12:14:49;101718.60;;;4.20
68127;BMP180;54931;52.098;21.006;2023-02-28T12:28:54;101714.40;;;4.04
68127;BMP180;54931;52.098;21.006;2023-02-28T12:31:30;101715.20;;;4.10
68127;BMP180;54931;52.098;21.006;2023-02-28T12:34:03;101712.20;;;4.10
68127;BMP180;54931;52.098;21.006;2023-02-28T12:36:33;101708.40;;;4.20
68127;BMP180;54931;52.098;21.006;2023-02-28T12:39:12;101700.40;;;4.20
68127;BMP180;54931;52.098;21.006;2023-02-28T12:44:26;101697.00;;;4.20
68127;BMP180;54931;52.098;21.006;2023-02-28T12:47:00;101696.80;;;4.20
68127;BMP180;54931;52.098;21.006;2023-02-28T12:49:39;101693.00;;;4.10
68127;BMP180;54931;52.098;21.006;2023-02-28T12:52:11;101688.60;;;4.10
68127;BMP180;54931;52.098;21.006;2023-02-28T12:57:57;101683.80;;;4.20
68127;BMP180;54931;52.098;21.006;2023-02-28T13:00:33;101684.60;;;4.38
68127;BMP180;54931;52.098;21.006;2023-02-28T13:06:43;101680.60;;;4.60
68127;BMP180;54931;52.098;21.006;2023-02-28T13:09:12;101685.80;;;4.70
68127;BMP180;54931;52.098;21.006;2023-02-28T13:11:47;101680.60;;;4.76
68127;BMP180;54931;52.098;21.006;2023-02-28T13:14:35;101679.60;;;4.76
68127;BMP180;54931;52.098;21.006;2023-02-28T13:19:57;101680.80;;;4.40
68127;BMP180;54931;52.098;21.006;2023-02-28T13:24:55;101673.80;;;4.50
68127;BMP180;54931;52.098;21.006;2023-02-28T13:27:41;101671.20;;;4.50
68127;BMP180;54931;52.098;21.006;2023-02-28T13:38:47;101662.80;;;4.70
68127;BMP180;54931;52.098;21.006;2023-02-28T13:44:23;101660.00;;;4.62
68127;BMP180;54931;52.098;21.006;2023-02-28T13:54:45;101649.40;;;4.90
68127;BMP180;54931;52.098;21.006;2023-02-28T13:58:06;101643.60;;;5.26
68127;BMP180;54931;52.098;21.006;2023-02-28T14:06:35;101631.80;;;5.60
68127;BMP180;54931;52.098;21.006;2023-02-28T14:11:44;101620.60;;;5.80
68127;BMP180;54931;52.098;21.006;2023-02-28T14:17:17;101626.40;;;6.30
68127;BMP180;54931;52.098;21.006;2023-02-28T14:19:46;101625.00;;;6.20
68127;BMP180;54931;52.098;21.006;2023-02-28T14:28:59;101616.20;;;5.40
68127;BMP180;54931;52.098;21.006;2023-02-28T14:31:33;101611.60;;;5.04
68127;BMP180;54931;52.098;21.006;2023-02-28T14:34:26;101603.80;;;4.80
68127;BMP180;54931;52.098;21.006;2023-02-28T14:37:02;101612.60;;;5.00
68127;BMP180;54931;52.098;21.006;2023-02-28T14:39:32;101604.40;;;5.02
68127;BMP180;54931;52.098;21.006;2023-02-28T14:42:01;101609.40;;;4.70
68127;BMP180;54931;52.098;21.006;2023-02-28T14:44:36;101615.20;;;4.40
68127;BMP180;54931;52.098;21.006;2023-02-28T14:47:14;101612.40;;;4.30
68127;BMP180;54931;52.098;21.006;2023-02-28T14:49:44;101607.00;;;4.20
68127;BMP180;54931;52.098;21.006;2023-02-28T14:52:20;101602.80;;;4.00
68127;BMP180;54931;52.098;21.006;2023-02-28T14:55:02;101595.20;;;3.74
68127;BMP180;54931;52.098;21.006;2023-02-28T14:57:35;101597.60;;;3.50
68127;BMP180;54931;52.098;21.006;2023-02-28T15:00:36;101592.60;;;3.40
68127;BMP180;54931;52.098;21.006;2023-02-28T15:03:35;101597.80;;;3.10
68127;BMP180;54931;52.098;21.006;2023-02-28T15:06:12;101590.20;;;2.86
68127;BMP180;54931;52.098;21.006;2023-02-28T15:08:40;101589.40;;;2.62
68127;BMP180;54931;52.098;21.006;2023-02-28T15:11:17;101593.60;;;2.50
68127;BMP180;54931;52.098;21.006;2023-02-28T15:13:50;101589.60;;;2.40
68127;BMP180;54931;52.098;21.006;2023-02-28T15:18:49;101589.60;;;2.20
68127;BMP180;54931;52.098;21.006;2023-02-28T15:21:25;101588.60;;;2.20
68127;BMP180;54931;52.098;21.006;2023-02-28T15:24:00;101586.00;;;2.10
68127;BMP180;54931;52.098;21.006;2023-02-28T15:26:32;101588.60;;;2.10
68127;BMP180;54931;52.098;21.006;2023-02-28T15:29:06;101589.40;;;2.10
68127;BMP180;54931;52.098;21.006;2023-02-28T15:31:46;101589.60;;;2.14
68127;BMP180;54931;52.098;21.006;2023-02-28T15:36:57;101590.20;;;2.32
68127;BMP180;54931;52.098;21.006;2023-02-28T15:39:28;101593.60;;;2.32
68127;BMP180;54931;52.098;21.006;2023-02-28T15:42:20;101590.40;;;2.22
68127;BMP180;54931;52.098;21.006;2023-02-28T15:44:49;101594.60;;;2.02
68127;BMP180;54931;52.098;21.006;2023-02-28T15:47:24;101592.80;;;1.86
68127;BMP180;54931;52.098;21.006;2023-02-28T15:50:12;101589.60;;;1.64
68127;BMP180;54931;52.098;21.006;2023-02-28T15:52:45;101596.40;;;1.44
68127;BMP180;54931;52.098;21.006;2023-02-28T15:55:24;101591.80;;;1.30
68127;BMP180;54931;52.098;21.006;2023-02-28T15:58:00;101592.00;;;1.10
68127;BMP180;54931;52.098;21.006;2023-02-28T16:00:30;101594.20;;;0.90
68127;BMP180;54931;52.098;21.006;2023-02-28T16:03:25;101589.80;;;0.80
68127;BMP180;54931;52.098;21.006;2023-02-28T16:06:43;101590.00;;;0.60
68127;BMP180;54931;52.098;21.006;2023-02-28T16:09:16;101586.20;;;0.40
68127;BMP180;54931;52.098;21.006;2023-02-28T16:11:50;101584.20;;;0.26
68127;BMP180;54931;52.098;21.006;2023-02-28T16:14:24;101582.20;;;0.10
68127;BMP180;54931;52.098;21.006;2023-02-28T16:17:08;101580.40;;;-0.10
68127;BMP180;54931;52.098;21.006;2023-02-28T16:19:41;101586.40;;;-0.20
68127;BMP180;54931;52.098;21.006;2023-02-28T16:22:10;101591.80;;;-0.30
68127;BMP180;54931;52.098;21.006;2023-02-28T16:24:39;101591.20;;;-0.40
68127;BMP180;54931;52.098;21.006;2023-02-28T16:27:21;101590.20;;;-0.50
68127;BMP180;54931;52.098;21.006;2023-02-28T16:29:50;101588.20;;;-0.60
68127;BMP180;54931;52.098;21.006;2023-02-28T16:32:20;101594.80;;;-0.70
68127;BMP180;54931;52.098;21.006;2023-02-28T16:34:49;101595.40;;;-0.78
68127;BMP180;54931;52.098;21.006;2023-02-28T16:37:18;101597.40;;;-0.88
68127;BMP180;54931;52.098;21.006;2023-02-28T16:39:49;101598.20;;;-1.00
68127;BMP180;54931;52.098;21.006;2023-02-28T16:42:28;101596.80;;;-1.10
68127;BMP180;54931;52.098;21.006;2023-02-28T16:44:57;101595.80;;;-1.20
68127;BMP180;54931;52.098;21.006;2023-02-28T16:47:27;101601.00;;;-1.30
68127;BMP180;54931;52.098;21.006;2023-02-28T16:49:57;101598.60;;;-1.32
68127;BMP180;54931;52.098;21.006;2023-02-28T16:52:26;101599.80;;;-1.40
68127;BMP180;54931;52.098;21.006;2023-02-28T16:54:54;101596.60;;;-1.54
68127;BMP180;54931;52.098;21.006;2023-02-28T16:57:23;101592.40;;;-1.68
68127;BMP180;54931;52.098;21.006;2023-02-28T16:59:52;101587.80;;;-1.76
68127;BMP180;54931;52.098;21.006;2023-02-28T17:02:20;101581.60;;;-1.80
68127;BMP180;54931;52.098;21.006;2023-02-28T17:04:48;101588.60;;;-1.90
68127;BMP180;54931;52.098;21.006;2023-02-28T17:07:17;101588.60;;;-1.98